Time;durP1;ratioP1;P1;durP2;ratioP2;P2;SDS_P1;SDS_P2;PMS_P1;PMS_P2;Temp;Humidity;BMP_temperature;BMP_pressure;BME280_temperature;BME280_humidity;BME280_pressure;Samples;Min_cycle;Max_cycle;Signal;HPM_P1;HPM_P2
2023/10/09 00:04:42;;;;;;;6.10;2.20;;;;;;;-145.68;100.00;74477.31;10401006;28;20274;-69
2023/10/09 00:09:50;;;;;;;4.40;3.63;;;;;;;-145.68;100.00;74473.31;10400831;28;20231;-69
2023/10/09 00:14:55;;;;;;;5.60;3.70;;;;;;;-145.68;100.00;74465.31;10400721;28;20623;-68
2023/10/09 00:19:59;;;;;;;8.40;4.87;;;;;;;-145.68;100.00;74475.31;10399809;28;20192;-68
2023/10/09 00:25:12;;;;;;;6.83;4.23;;;;;;;-145.68;100.00;74453.34;10400105;28;20240;-68
2023/10/09 00:30:21;;;;;;;5.40;4.60;;;;;;;-145.68;100.00;74443.34;10397251;28;20242;-68
2023/10/09 00:35:36;;;;;;;4.30;3.83;;;;;;;-145.68;100.00;74427.34;10400335;28;20693;-69
2023/10/09 00:40:45;;;;;;;5.50;4.90;;;;;;;-145.68;100.00;74407.34;10382452;28;20342;-69
2023/10/09 00:45:46;;;;;;;4.60;3.90;;;;;;;-145.68;100.00;74391.34;10399513;28;20216;-68
2023/10/09 00:50:52;;;;;;;7.30;4.93;;;;;;;-145.68;100.00;74373.38;10408000;28;20207;-69
2023/10/09 00:55:56;;;;;;;5.47;4.20;;;;;;;-145.68;100.00;74339.38;10407849;28;20219;-69
2023/10/09 01:00:59;;;;;;;8.00;6.30;;;;;;;-145.68;100.00;74351.38;10389560;28;20631;-68
2023/10/09 01:11:25;;;;;;;7.53;5.90;;;;;;;-145.68;100.00;74303.38;10403593;28;20185;-68
2023/10/09 01:16:25;;;;;;;6.67;5.73;;;;;;;-145.68;100.00;74293.41;10407183;28;20193;-69
2023/10/09 01:21:31;;;;;;;6.37;5.33;;;;;;;-145.68;100.00;74283.41;10406707;28;20263;-69
2023/10/09 01:26:39;;;;;;;7.17;5.87;;;;;;;-145.68;100.00;74275.41;10406875;28;20231;-69
2023/10/09 01:31:46;;;;;;;7.50;6.63;;;;;;;-145.68;100.00;74257.41;10406289;28;20205;-68
2023/10/09 01:36:49;;;;;;;8.10;7.00;;;;;;;-145.68;100.00;74251.41;10406405;28;20189;-68
2023/10/09 01:41:52;;;;;;;9.52;6.90;;;;;;;-145.68;100.00;74225.41;10388568;28;20224;-68
2023/10/09 01:46:56;;;;;;;8.88;6.78;;;;;;;-145.68;100.00;74203.44;10405811;28;20339;-68
2023/10/09 01:52:03;;;;;;;10.50;7.90;;;;;;;-145.68;100.00;74215.44;10405101;28;20213;-68
2023/10/09 01:57:12;;;;;;;11.23;7.70;;;;;;;-145.68;100.00;74203.44;10405796;28;20185;-68
2023/10/09 02:02:35;;;;;;;11.93;8.40;;;;;;;-145.68;100.00;74211.44;10385241;28;20303;-68
2023/10/09 02:07:40;;;;;;;9.68;7.15;;;;;;;-145.68;100.00;74199.44;10387506;28;20231;-68
2023/10/09 02:12:43;;;;;;;10.50;8.35;;;;;;;-145.68;100.00;74159.44;10372293;28;20208;-68
2023/10/09 02:17:52;;;;;;;11.63;7.93;;;;;;;-145.68;100.00;74157.44;10387444;28;20197;-68
2023/10/09 02:22:53;;;;;;;9.30;7.47;;;;;;;-145.68;100.00;74153.47;10405140;28;20243;-68
2023/10/09 02:27:53;;;;;;;15.43;7.90;;;;;;;-145.68;100.00;74167.44;10405033;28;20239;-69
2023/10/09 02:33:06;;;;;;;17.97;7.97;;;;;;;-145.68;100.00;74163.44;10386944;28;20299;-68
2023/10/09 02:38:07;;;;;;;12.13;8.20;;;;;;;-145.68;100.00;74151.47;10382967;28;20247;-68
2023/10/09 02:43:17;;;;;;;14.20;8.32;;;;;;;-145.68;100.00;74155.44;10378850;28;20216;-68
2023/10/09 02:48:24;;;;;;;15.57;7.67;;;;;;;-145.68;100.00;74135.47;10386641;28;20192;-68
2023/10/09 02:53:29;;;;;;;12.30;6.78;;;;;;;-145.68;100.00;74113.47;10403894;28;20224;-68
2023/10/09 02:58:32;;;;;;;11.63;6.87;;;;;;;-145.68;100.00;74103.47;10404023;28;20193;-68
2023/10/09 03:03:35;;;;;;;8.63;6.32;;;;;;;-145.68;100.00;74079.50;10403454;28;20605;-67
2023/10/09 03:08:37;;;;;;;21.95;8.88;;;;;;;-145.68;100.00;74069.50;10402772;28;20678;-68
2023/10/09 03:13:37;;;;;;;12.15;6.70;;;;;;;-145.68;100.00;74027.50;10398251;28;20208;-67
2023/10/09 03:18:37;;;;;;;18.70;9.53;;;;;;;-145.68;100.00;74037.50;10402838;28;20201;-66
2023/10/09 03:23:38;;;;;;;15.73;7.28;;;;;;;-145.68;100.00;74003.53;10400981;28;20235;-67
2023/10/09 03:28:38;;;;;;;12.70;6.97;;;;;;;-145.68;100.00;73981.53;10402641;28;20193;-67
2023/10/09 03:33:40;;;;;;;13.47;7.63;;;;;;;-145.68;100.00;73947.56;10402553;28;20208;-67
2023/10/09 03:38:40;;;;;;;17.07;7.73;;;;;;;-145.68;100.00;73947.56;10402339;28;20196;-67
2023/10/09 03:43:40;;;;;;;14.07;7.90;;;;;;;-145.68;100.00;73899.56;10402071;28;20687;-67
2023/10/09 03:48:43;;;;;;;15.82;9.00;;;;;;;-145.68;100.00;73871.59;10402625;28;20752;-67
2023/10/09 03:53:43;;;;;;;12.45;7.43;;;;;;;-145.68;100.00;73799.63;10401983;28;20324;-67
2023/10/09 03:58:45;;;;;;;16.85;8.13;;;;;;;-145.68;100.00;73771.63;10401747;28;20276;-67
2023/10/09 04:03:45;;;;;;;18.73;8.48;;;;;;;-145.68;100.00;73751.66;10401605;28;20217;-68
2023/10/09 04:08:51;;;;;;;17.23;7.93;;;;;;;-145.68;100.00;73741.66;10401509;28;20204;-68
2023/10/09 04:13:52;;;;;;;16.00;8.02;;;;;;;-145.68;100.00;73737.66;10401603;28;20749;-68
2023/10/09 04:18:56;;;;;;;18.70;8.35;;;;;;;-145.68;100.00;73735.66;10401416;28;20274;-68
2023/10/09 04:29:23;;;;;;;20.95;7.57;;;;;;;-145.68;100.00;73707.69;10406534;28;20376;-67
2023/10/09 04:34:36;;;;;;;15.20;7.60;;;;;;;-145.68;100.00;73695.69;10409743;28;20219;-68
2023/10/09 04:39:37;;;;;;;13.68;8.00;;;;;;;-145.68;100.00;73687.69;10409219;28;20196;-68
2023/10/09 04:44:37;;;;;;;18.40;9.05;;;;;;;-145.68;100.00;73685.69;10392894;28;20217;-68
2023/10/09 05:00:46;;;;;;;18.30;8.40;;;;;;;-145.68;100.00;73671.69;10396875;28;20197;-68
2023/10/09 05:05:48;;;;;;;14.90;7.82;;;;;;;-145.68;100.00;73643.72;10392618;28;20593;-68
2023/10/09 05:15:59;;;;;;;20.35;9.25;;;;;;;-145.68;100.00;73639.72;10369819;28;20209;-68
2023/10/09 05:21:35;;;;;;;20.90;8.50;;;;;;;-145.68;100.00;73627.72;10380024;28;20671;-68
2023/10/09 05:26:37;;;;;;;17.33;9.05;;;;;;;-145.68;100.00;73637.72;10377917;28;20721;-68
2023/10/09 05:31:57;;;;;;;23.17;10.73;;;;;;;-145.68;100.00;73665.69;10376081;28;20205;-67
2023/10/09 05:37:10;;;;;;;26.75;10.77;;;;;;;-145.68;100.00;73679.69;10380007;28;20193;-67
2023/10/09 05:42:17;;;;;;;19.92;11.45;;;;;;;-145.68;100.00;73695.69;10382068;28;20213;-67
2023/10/09 05:47:31;;;;;;;27.27;11.05;;;;;;;-145.68;100.00;73701.69;10384553;28;20220;-66
2023/10/09 06:08:23;;;;;;;25.65;13.50;;;;;;;-145.68;100.00;73753.66;10393373;28;20449;-68
2023/10/09 06:14:12;;;;;;;24.52;13.10;;;;;;;-145.68;100.00;73763.66;10390096;28;20225;-68
2023/10/09 06:19:07;;;;;;;28.40;14.38;;;;;;;-145.68;100.00;73783.63;10386238;28;20430;-68
2023/10/09 06:29:14;;;;;;;31.95;14.50;;;;;;;-145.68;100.00;73787.63;10392657;28;20204;-67
2023/10/09 06:34:15;;;;;;;27.33;15.38;;;;;;;-145.68;100.00;73789.63;10392753;28;20208;-66
2023/10/09 06:45:09;;;;;;;29.90;16.70;;;;;;;-145.68;100.00;73793.63;10389002;28;20231;-68
2023/10/09 06:55:32;;;;;;;33.30;16.92;;;;;;;-145.68;100.00;73787.63;10387650;28;20364;-67
2023/10/09 07:06:23;;;;;;;32.45;16.50;;;;;;;-145.68;100.00;73811.63;10390804;28;20231;-67
2023/10/09 07:16:57;;;;;;;34.45;17.67;;;;;;;-145.68;100.00;73823.63;10385574;28;20186;-66
2023/10/09 07:22:02;;;;;;;30.17;15.52;;;;;;;-145.68;100.00;73833.59;10379301;28;20244;-65
2023/10/09 07:27:08;;;;;;;35.20;16.73;;;;;;;-145.68;100.00;73849.59;10380818;28;20220;-66
2023/10/09 07:32:12;;;;;;;29.75;16.65;;;;;;;-145.68;100.00;73855.59;10373061;28;20653;-66
2023/10/09 07:37:19;;;;;;;32.10;16.60;;;;;;;-145.68;100.00;73863.59;10376009;28;20204;-68
2023/10/09 07:42:26;;;;;;;28.90;15.80;;;;;;;-145.68;100.00;73865.59;10386977;28;20717;-66
2023/10/09 07:48:00;;;;;;;31.35;15.63;;;;;;;-145.68;100.00;73865.59;10383057;28;20209;-65
2023/10/09 07:53:14;;;;;;;31.83;16.85;;;;;;;-145.68;100.00;73887.56;10386546;28;20220;-66
2023/10/09 07:58:16;;;;;;;32.03;17.58;;;;;;;-145.68;100.00;73891.56;10382765;28;20237;-66
2023/10/09 08:03:23;;;;;;;38.88;18.95;;;;;;;-145.68;100.00;73891.56;10385769;28;20232;-66
2023/10/09 08:13:49;;;;;;;37.75;19.38;;;;;;;-145.68;100.00;73933.56;10380703;28;20237;-67
2023/10/09 08:18:51;;;;;;;41.08;20.90;;;;;;;-145.68;100.00;73935.56;10385407;28;20184;-67
2023/10/09 08:23:52;;;;;;;39.40;20.95;;;;;;;-145.68;100.00;73935.56;10385466;28;20233;-69
2023/10/09 08:28:54;;;;;;;37.33;21.38;;;;;;;-145.68;100.00;73917.56;10384572;28;20196;-68
2023/10/09 08:33:57;;;;;;;36.50;17.90;;;;;;;-145.68;100.00;73907.56;10383959;28;20224;-69
2023/10/09 08:39:14;;;;;;;30.63;16.58;;;;;;;-145.68;100.00;73901.56;10384380;28;20276;-68
2023/10/09 08:44:15;;;;;;;30.20;16.67;;;;;;;-145.68;100.00;73895.56;10385054;28;20228;-68
2023/10/09 08:49:17;;;;;;;27.20;16.48;;;;;;;-145.68;100.00;73891.56;10384278;28;20868;-65
2023/10/09 08:54:18;;;;;;;28.45;15.52;;;;;;;-145.68;100.00;73915.56;10385210;28;20706;-68
2023/10/09 08:59:19;;;;;;;23.52;12.68;;;;;;;-145.68;100.00;73909.56;10385573;28;20197;-66
2023/10/09 09:04:39;;;;;;;21.58;11.27;;;;;;;-145.68;100.00;73891.56;10384330;28;20213;-67
2023/10/09 09:09:56;;;;;;;19.88;10.77;;;;;;;-145.68;100.00;73881.59;10388311;28;20185;-68
2023/10/09 09:14:57;;;;;;;20.67;11.15;;;;;;;-145.68;100.00;73909.56;10386919;28;20217;-68
2023/10/09 09:19:58;;;;;;;18.38;11.02;;;;;;;-145.68;100.00;73909.56;10373891;28;20193;-67
2023/10/09 09:25:03;;;;;;;16.20;10.60;;;;;;;-145.68;100.00;73913.56;10373444;28;20231;-68
2023/10/09 09:30:07;;;;;;;18.67;10.27;;;;;;;-145.68;100.00;73911.56;10374285;28;20190;-67
2023/10/09 09:35:17;;;;;;;15.52;9.50;;;;;;;-145.68;100.00;73915.56;10370362;28;20209;-67
2023/10/09 09:40:30;;;;;;;17.85;11.05;;;;;;;-145.68;100.00;73917.56;10392872;28;20198;-67
2023/10/09 09:45:37;;;;;;;16.52;8.93;;;;;;;-145.68;100.00;73915.56;10389394;28;20217;-67
2023/10/09 09:50:43;;;;;;;18.05;9.27;;;;;;;-145.68;100.00;73919.56;10388784;28;20201;-67
2023/10/09 09:55:57;;;;;;;15.68;8.90;;;;;;;-145.68;100.00;73943.56;10391998;28;20278;-67
2023/10/09 10:01:01;;;;;;;15.10;7.88;;;;;;;-145.68;100.00;73959.53;10389942;28;20204;-68
2023/10/09 10:06:05;;;;;;;17.23;8.70;;;;;;;-145.68;100.00;73943.56;10391198;28;20216;-68
2023/10/09 10:11:06;;;;;;;14.55;8.73;;;;;;;-145.68;100.00;73927.56;10371423;28;20279;-68
2023/10/09 10:16:19;;;;;;;13.10;8.77;;;;;;;-145.68;100.00;73925.56;10390585;28;20305;-68
2023/10/09 10:26:35;;;;;;;19.98;12.25;;;;;;;-145.68;100.00;73907.56;10386599;28;20220;-68
2023/10/09 10:32:00;;;;;;;17.55;11.48;;;;;;;-145.68;100.00;73907.56;10390172;28;20197;-67
2023/10/09 10:37:00;;;;;;;22.85;11.48;;;;;;;-145.68;100.00;73877.59;10389342;28;20670;-68
2023/10/09 10:42:04;;;;;;;18.50;11.05;;;;;;;-145.68;100.00;73887.56;10373788;28;20217;-70
2023/10/09 10:47:22;;;;;;;23.10;14.30;;;;;;;-145.68;100.00;73859.59;10386860;28;20252;-70
2023/10/09 10:52:35;;;;;;;18.75;11.65;;;;;;;-145.68;100.00;73851.59;10389034;28;20339;-70
2023/10/09 11:03:06;;;;;;;19.33;11.18;;;;;;;-145.68;100.00;73833.59;10389666;28;20262;-70
2023/10/09 11:08:10;;;;;;;22.17;12.35;;;;;;;-145.68;100.00;73823.63;10386170;28;20754;-70
2023/10/09 11:23:29;;;;;;;20.40;11.82;;;;;;;-145.68;100.00;73823.63;10387329;28;20241;-70
2023/10/09 11:28:48;;;;;;;20.05;12.82;;;;;;;-145.68;100.00;73797.63;10384519;28;20205;-69
2023/10/09 11:33:53;;;;;;;21.80;12.75;;;;;;;-145.68;100.00;73781.63;10386943;28;20313;-69
2023/10/09 11:39:12;;;;;;;22.92;12.65;;;;;;;-145.68;100.00;73787.63;10386868;28;20214;-69
2023/10/09 11:44:19;;;;;;;24.85;11.70;;;;;;;-145.68;100.00;73785.63;10365412;28;20619;-69
2023/10/09 11:54:33;;;;;;;22.95;13.60;;;;;;;-145.68;100.00;73791.63;10385987;28;20212;-67
2023/10/09 11:59:38;;;;;;;22.75;13.02;;;;;;;-145.68;100.00;73789.63;10383740;28;20212;-68
2023/10/09 12:04:42;;;;;;;21.58;11.98;;;;;;;-145.68;100.00;73803.63;10386899;28;20226;-68
2023/10/09 12:09:42;;;;;;;23.27;12.70;;;;;;;-145.68;100.00;73805.63;10383693;28;20193;-67
2023/10/09 12:14:43;;;;;;;27.17;13.90;;;;;;;-145.68;100.00;73803.63;10383982;28;20952;-67
2023/10/09 12:19:44;;;;;;;26.08;14.23;;;;;;;-145.68;100.00;73817.63;10386991;28;20204;-67
2023/10/09 12:24:45;;;;;;;22.98;13.02;;;;;;;-145.68;100.00;73829.59;10388009;28;20244;-68
2023/10/09 12:29:46;;;;;;;23.42;12.70;;;;;;;-145.68;100.00;73835.59;10387914;28;20204;-67
2023/10/09 12:34:50;;;;;;;22.27;12.25;;;;;;;-145.68;100.00;73843.59;10388047;28;20632;-67
2023/10/09 12:39:55;;;;;;;18.92;10.27;;;;;;;-145.68;100.00;73843.59;10387394;28;20199;-66
2023/10/09 12:44:57;;;;;;;19.75;9.80;;;;;;;-145.68;100.00;73833.59;10394822;28;20235;-67
2023/10/09 12:49:58;;;;;;;19.60;11.18;;;;;;;-145.68;100.00;73843.59;10389175;28;20253;-67
2023/10/09 12:54:58;;;;;;;14.05;9.32;;;;;;;-145.68;100.00;73851.59;10395592;28;20238;-68
2023/10/09 12:59:58;;;;;;;13.85;7.35;;;;;;;-145.68;100.00;73839.59;10395391;28;20543;-68
2023/10/09 13:05:00;;;;;;;10.43;6.50;;;;;;;-145.68;100.00;73839.59;10395008;28;20239;-68
2023/10/09 13:10:09;;;;;;;7.07;4.53;;;;;;;-145.68;100.00;73817.63;10388447;28;20236;-66
2023/10/09 13:15:11;;;;;;;8.90;4.90;;;;;;;-145.68;100.00;73829.59;10380971;28;20224;-67
2023/10/09 13:20:14;;;;;;;6.35;4.68;;;;;;;-145.68;100.00;73809.63;10379070;28;20197;-69
2023/10/09 13:25:16;;;;;;;6.90;4.40;;;;;;;-145.68;100.00;73811.63;10378409;28;20312;-66
2023/10/09 13:30:21;;;;;;;5.95;3.60;;;;;;;-145.68;100.00;73789.63;10387945;28;20814;-69
2023/10/09 13:35:37;;;;;;;7.05;3.60;;;;;;;-145.68;100.00;73789.63;10380923;28;20936;-67
2023/10/09 13:40:37;;;;;;;6.70;4.50;;;;;;;-145.68;100.00;73777.63;10377403;28;20530;-67
2023/10/09 13:45:38;;;;;;;6.03;3.92;;;;;;;-145.68;100.00;73763.66;10390948;28;20221;-68
2023/10/09 13:50:42;;;;;;;11.00;6.18;;;;;;;-145.68;100.00;73781.63;10392995;28;20271;-68
2023/10/09 13:55:47;;;;;;;7.95;5.35;;;;;;;-145.68;100.00;73777.63;10389385;28;20217;-68
2023/10/09 14:00:49;;;;;;;10.35;5.68;;;;;;;-145.68;100.00;73769.63;10393143;28;20193;-68
2023/10/09 14:05:56;;;;;;;13.07;6.55;;;;;;;-145.68;100.00;73773.63;10392201;28;20228;-69
2023/10/09 14:10:57;;;;;;;13.60;6.70;;;;;;;-145.68;100.00;73787.63;10391238;28;20197;-68
2023/10/09 14:15:59;;;;;;;11.32;6.10;;;;;;;-145.68;100.00;73781.63;10392732;28;20733;-68
2023/10/09 14:21:15;;;;;;;9.88;6.38;;;;;;;-145.68;100.00;73797.63;10385057;28;20671;-68
2023/10/09 14:26:18;;;;;;;10.63;6.05;;;;;;;-145.68;100.00;73789.63;10381030;28;20334;-68
2023/10/09 14:31:26;;;;;;;12.30;6.75;;;;;;;-145.68;100.00;73789.63;10383661;28;20579;-69
2023/10/09 14:36:33;;;;;;;10.05;6.50;;;;;;;-145.68;100.00;73795.63;10378171;28;20602;-67
2023/10/09 14:41:33;;;;;;;12.32;7.85;;;;;;;-145.68;100.00;73805.63;10432811;23;21003;-65
2023/10/09 14:46:35;;;;;;;11.68;7.88;;;;;;;-145.68;100.00;73805.63;10418911;28;20239;-66
2023/10/09 14:51:36;;;;;;;9.38;6.45;;;;;;;-145.68;100.00;73805.63;10419668;28;20627;-67
2023/10/09 14:56:37;;;;;;;9.85;6.88;;;;;;;-145.68;100.00;73805.63;10426823;28;20197;-66
2023/10/09 15:01:38;;;;;;;11.10;7.18;;;;;;;-145.68;100.00;73809.63;10417521;28;20227;-67
2023/10/09 15:06:38;;;;;;;11.40;7.32;;;;;;;-145.68;100.00;73821.63;10410213;28;20220;-65
2023/10/09 15:11:40;;;;;;;14.90;7.63;;;;;;;-145.68;100.00;73827.59;10409668;28;20216;-69
2023/10/09 15:16:42;;;;;;;10.82;7.60;;;;;;;-145.68;100.00;73837.59;10413926;28;20201;-66
2023/10/09 15:21:46;;;;;;;13.13;8.27;;;;;;;-145.68;100.00;73843.59;10413442;28;20235;-66
2023/10/09 15:26:52;;;;;;;12.88;8.07;;;;;;;-145.68;100.00;73843.59;10421500;28;20702;-67
2023/10/09 15:31:52;;;;;;;11.05;7.57;;;;;;;-145.68;100.00;73839.59;10427397;28;20294;-67
2023/10/09 15:36:53;;;;;;;9.65;6.43;;;;;;;-145.68;100.00;73839.59;10430855;28;20202;-67
2023/10/09 15:41:53;;;;;;;10.32;7.07;;;;;;;-145.68;100.00;73833.59;10430907;28;20232;-65
2023/10/09 15:46:59;;;;;;;10.93;8.40;;;;;;;-145.68;100.00;73847.59;10431851;28;20306;-66
2023/10/09 15:52:01;;;;;;;10.82;8.00;;;;;;;-145.68;100.00;73855.59;10430442;28;20216;-65
2023/10/09 15:57:01;;;;;;;10.02;6.10;;;;;;;-145.68;100.00;73857.59;10431018;28;20351;-66
2023/10/09 16:02:03;;;;;;;9.65;5.40;;;;;;;-145.68;100.00;73855.59;10430944;28;20302;-65
2023/10/09 16:07:05;;;;;;;9.20;5.80;;;;;;;-145.68;100.00;73845.59;10430929;28;20239;-65
2023/10/09 16:12:07;;;;;;;5.47;4.88;;;;;;;-145.68;100.00;73859.59;10430386;28;20234;-65
2023/10/09 16:17:09;;;;;;;5.90;4.30;;;;;;;-145.68;100.00;73865.59;10431313;28;20190;-66
2023/10/09 16:22:10;;;;;;;5.18;3.78;;;;;;;-145.68;100.00;73859.59;10425585;28;20227;-67
2023/10/09 16:27:13;;;;;;;6.65;4.95;;;;;;;-145.68;100.00;73869.59;10422430;28;20598;-67
2023/10/09 16:32:14;;;;;;;7.90;5.03;;;;;;;-145.68;100.00;73879.59;10440408;28;20195;-66
2023/10/09 16:37:15;;;;;;;7.63;5.20;;;;;;;-145.68;100.00;73895.56;10443983;28;20188;-66
2023/10/09 16:42:16;;;;;;;6.80;4.88;;;;;;;-145.68;100.00;73889.56;10444078;28;20188;-67
2023/10/09 16:47:19;;;;;;;5.68;3.72;;;;;;;-145.68;100.00;73879.59;10444243;28;20220;-66
2023/10/09 16:52:19;;;;;;;5.32;4.28;;;;;;;-145.68;100.00;73891.56;10444056;28;20197;-67
2023/10/09 16:57:20;;;;;;;6.28;5.03;;;;;;;-145.68;100.00;73891.56;10443905;28;20192;-66
2023/10/09 17:02:23;;;;;;;10.55;7.88;;;;;;;-145.68;100.00;73895.56;10443863;28;20326;-67
2023/10/09 17:07:27;;;;;;;10.75;6.03;;;;;;;-145.68;100.00;73883.59;10443563;28;20599;-66
2023/10/09 17:12:30;;;;;;;4.25;3.83;;;;;;;-145.68;100.00;73895.56;10436396;28;20192;-66
2023/10/09 17:17:31;;;;;;;5.30;4.22;;;;;;;-145.68;100.00;73907.56;10443548;28;20282;-66
2023/10/09 17:22:33;;;;;;;6.63;3.95;;;;;;;-145.68;100.00;73903.56;10443444;28;20246;-66
2023/10/09 17:27:34;;;;;;;4.90;4.00;;;;;;;-145.68;100.00;73905.56;10441706;28;20439;-67
2023/10/09 17:32:36;;;;;;;4.63;3.78;;;;;;;-145.68;100.00;73915.56;10436550;28;20199;-67
2023/10/09 17:37:38;;;;;;;7.53;3.78;;;;;;;-145.68;100.00;73901.56;10436504;28;20704;-66
2023/10/09 17:42:41;;;;;;;6.13;3.47;;;;;;;-145.68;100.00;73907.56;10434343;28;20192;-66
2023/10/09 17:47:41;;;;;;;3.90;3.50;;;;;;;-145.68;100.00;73917.56;10435912;28;20225;-67
2023/10/09 17:52:42;;;;;;;5.65;3.35;;;;;;;-145.68;100.00;73925.56;10436415;28;20201;-66
2023/10/09 17:57:43;;;;;;;4.72;3.97;;;;;;;-145.68;100.00;73925.56;10435646;28;20718;-67
2023/10/09 18:02:43;;;;;;;8.18;4.72;;;;;;;-145.68;100.00;73927.56;10435849;28;20291;-66
2023/10/09 18:07:44;;;;;;;6.35;5.70;;;;;;;-145.68;100.00;73939.56;10435155;28;20227;-66
2023/10/09 18:12:44;;;;;;;6.97;5.63;;;;;;;-145.68;100.00;73937.56;10435296;28;20210;-65
2023/10/09 18:17:45;;;;;;;8.32;7.30;;;;;;;-145.68;100.00;73943.56;10435045;28;20618;-65
2023/10/09 18:22:46;;;;;;;7.97;6.55;;;;;;;-145.68;100.00;73937.56;10434899;28;20253;-65
2023/10/09 18:27:46;;;;;;;10.00;7.03;;;;;;;-145.68;100.00;73931.56;10434523;28;20737;-66
2023/10/09 18:32:47;;;;;;;8.65;6.80;;;;;;;-145.68;100.00;73935.56;10435188;28;20195;-67
2023/10/09 18:37:47;;;;;;;9.35;7.65;;;;;;;-145.68;100.00;73931.56;10435453;28;20242;-66
2023/10/09 18:42:48;;;;;;;9.90;7.28;;;;;;;-145.68;100.00;73937.56;10432660;28;20196;-69
2023/10/09 18:47:48;;;;;;;6.88;6.18;;;;;;;-145.68;100.00;73931.56;10433670;28;20235;-66
2023/10/09 18:52:51;;;;;;;6.78;6.05;;;;;;;-145.68;100.00;73935.56;10433473;28;20206;-65
2023/10/09 18:57:52;;;;;;;8.95;7.97;;;;;;;-145.68;100.00;73937.56;10433116;28;20262;-66
2023/10/09 19:02:52;;;;;;;10.40;8.93;;;;;;;-145.68;100.00;73939.56;10432949;28;20295;-65
2023/10/09 19:07:55;;;;;;;16.30;11.15;;;;;;;-145.68;100.00;73939.56;10432439;28;20224;-66
2023/10/09 19:12:56;;;;;;;13.02;9.25;;;;;;;-145.68;100.00;73939.56;10432665;28;20192;-66
2023/10/09 19:17:57;;;;;;;16.10;12.27;;;;;;;-145.68;100.00;73943.56;10432287;28;20290;-66
2023/10/09 19:22:59;;;;;;;18.73;13.85;;;;;;;-145.68;100.00;73945.56;10431410;28;20191;-65
2023/10/09 19:27:59;;;;;;;18.77;14.02;;;;;;;-145.68;100.00;73943.56;10431994;28;20627;-66
2023/10/09 19:32:59;;;;;;;21.50;14.93;;;;;;;-145.68;100.00;73947.56;10431770;28;20195;-67
2023/10/09 19:38:00;;;;;;;31.52;19.40;;;;;;;-145.68;100.00;73951.53;10431500;28;20224;-67
2023/10/09 19:43:00;;;;;;;31.55;21.38;;;;;;;-145.68;100.00;73951.53;10431461;28;20195;-65
2023/10/09 19:48:02;;;;;;;33.58;23.02;;;;;;;-145.68;100.00;73961.53;10431432;28;20237;-67
2023/10/09 19:53:02;;;;;;;32.72;22.05;;;;;;;-145.68;100.00;73951.53;10430800;28;20204;-65
2023/10/09 19:58:04;;;;;;;32.53;21.80;;;;;;;-145.68;100.00;73941.56;10430752;28;20269;-68
2023/10/09 20:03:04;;;;;;;30.65;20.08;;;;;;;-145.68;100.00;73939.56;10430924;28;20195;-65
2023/10/09 20:08:05;;;;;;;28.98;20.25;;;;;;;-145.68;100.00;73947.56;10430705;28;20231;-65
2023/10/09 20:13:05;;;;;;;32.58;21.13;;;;;;;-145.68;100.00;73947.56;10418535;28;20192;-66
2023/10/09 20:18:07;;;;;;;30.35;19.17;;;;;;;-145.68;100.00;73951.53;10413379;28;20786;-66
2023/10/09 20:23:07;;;;;;;17.88;12.15;;;;;;;-145.68;100.00;73947.56;10430505;28;20200;-66
2023/10/09 20:28:10;;;;;;;7.05;6.10;;;;;;;-145.68;100.00;73947.56;10425506;28;20228;-66
2023/10/09 20:33:10;;;;;;;5.57;4.55;;;;;;;-145.68;100.00;73943.56;10422002;28;20257;-66
2023/10/09 20:38:15;;;;;;;4.47;3.50;;;;;;;-145.68;100.00;73955.53;10427326;28;20270;-65
2023/10/09 20:43:15;;;;;;;8.18;6.78;;;;;;;-145.68;100.00;73953.53;10430107;28;20220;-68
2023/10/09 20:48:16;;;;;;;13.55;11.35;;;;;;;-145.68;100.00;73943.56;10430010;28;20298;-67
2023/10/09 20:53:17;;;;;;;23.65;17.80;;;;;;;-145.68;100.00;73953.53;10429645;28;20192;-67
2023/10/09 20:58:17;;;;;;;29.58;19.77;;;;;;;-145.68;100.00;73955.53;10413103;28;20222;-67
2023/10/09 21:03:18;;;;;;;30.48;19.92;;;;;;;-145.68;100.00;73955.53;10415871;28;20188;-65
2023/10/09 21:08:18;;;;;;;30.10;20.70;;;;;;;-145.68;100.00;73957.53;10421505;28;20216;-67
2023/10/09 21:13:19;;;;;;;30.02;20.25;;;;;;;-145.68;100.00;73957.53;10422084;28;20189;-67
2023/10/09 21:18:20;;;;;;;27.55;20.35;;;;;;;-145.68;100.00;73949.56;10430678;28;20217;-65
2023/10/09 21:23:20;;;;;;;30.73;20.77;;;;;;;-145.68;100.00;73933.56;10423434;28;20568;-66
2023/10/09 21:28:20;;;;;;;32.15;20.83;;;;;;;-145.68;100.00;73939.56;10430227;28;20246;-66
2023/10/09 21:33:21;;;;;;;31.52;21.48;;;;;;;-145.68;100.00;73931.56;10436946;28;20193;-66
2023/10/09 21:38:21;;;;;;;26.00;19.80;;;;;;;-145.68;100.00;73927.56;10436895;28;20239;-65
2023/10/09 21:43:21;;;;;;;27.40;19.67;;;;;;;-145.68;100.00;73927.56;10437157;28;20197;-66
2023/10/09 21:48:22;;;;;;;32.15;21.58;;;;;;;-145.68;100.00;73949.56;10437277;28;20220;-65
2023/10/09 21:53:22;;;;;;;29.88;20.33;;;;;;;-145.68;100.00;73947.56;10436684;28;20282;-66
2023/10/09 21:58:22;;;;;;;28.80;19.10;;;;;;;-145.68;100.00;73963.53;10436773;28;20217;-66
2023/10/09 22:03:27;;;;;;;28.10;18.20;;;;;;;-145.68;100.00;73973.53;10436558;28;20211;-66
2023/10/09 22:08:27;;;;;;;32.10;21.65;;;;;;;-145.68;100.00;73965.53;10429247;28;20229;-66
2023/10/09 22:13:27;;;;;;;38.35;25.65;;;;;;;-145.68;100.00;73977.53;10436009;28;20189;-65
2023/10/09 22:18:32;;;;;;;38.30;25.63;;;;;;;-145.68;100.00;73973.53;10435610;28;20205;-65
2023/10/09 22:23:32;;;;;;;44.65;27.05;;;;;;;-145.68;100.00;73979.53;10435908;28;20200;-65
2023/10/09 22:28:33;;;;;;;38.63;25.23;;;;;;;-145.68;100.00;73981.53;10435319;28;20221;-66
2023/10/09 22:33:45;;;;;;;37.40;24.40;;;;;;;-145.68;100.00;73987.53;10435297;28;20188;-67
2023/10/09 22:38:50;;;;;;;32.13;21.50;;;;;;;-145.68;100.00;73993.53;10435074;28;20228;-66
2023/10/09 22:43:53;;;;;;;33.63;20.80;;;;;;;-145.68;100.00;74003.53;10435118;28;20572;-67
2023/10/09 22:48:59;;;;;;;28.75;20.77;;;;;;;-145.68;100.00;73993.53;10434237;28;20216;-65
2023/10/09 22:54:03;;;;;;;31.45;20.48;;;;;;;-145.68;100.00;73989.53;10434039;28;20231;-65
2023/10/09 22:59:20;;;;;;;30.00;20.45;;;;;;;-145.68;100.00;73991.53;10434486;28;20223;-65
2023/10/09 23:04:38;;;;;;;31.45;20.92;;;;;;;-145.68;100.00;73995.53;10434440;28;20306;-66
2023/10/09 23:09:49;;;;;;;32.53;19.65;;;;;;;-145.68;100.00;73995.53;10430553;28;20216;-66
2023/10/09 23:14:50;;;;;;;33.65;20.70;;;;;;;-145.68;100.00;73995.53;10433931;28;20192;-65
2023/10/09 23:19:57;;;;;;;29.02;17.98;;;;;;;-145.68;100.00;74003.53;10433358;28;20294;-65
2023/10/09 23:25:10;;;;;;;27.50;17.75;;;;;;;-145.68;100.00;74007.53;10432242;28;20216;-68
2023/10/09 23:30:25;;;;;;;29.10;18.20;;;;;;;-145.68;100.00;74017.50;10432946;28;20216;-65
2023/10/09 23:35:43;;;;;;;24.05;15.32;;;;;;;-145.68;100.00;74027.50;10429273;28;20573;-66
2023/10/09 23:40:44;;;;;;;17.13;12.52;;;;;;;-145.68;100.00;74027.50;10432640;28;20239;-67
2023/10/09 23:45:45;;;;;;;15.20;10.60;;;;;;;-145.68;100.00;74029.50;10432481;28;20226;-65
2023/10/09 23:50:47;;;;;;;13.45;8.07;;;;;;;-145.68;100.00;74023.50;10432221;28;20568;-65
2023/10/09 23:55:50;;;;;;;10.93;8.52;;;;;;;-145.68;100.00;74031.50;10432755;28;20566;-65
